createdAt,value
2023-03-21T00:00:21.283Z,0.00
2023-03-21T00:01:21.307Z,0.00
2023-03-21T00:02:21.419Z,0.00
2023-03-21T00:03:21.398Z,0.00
2023-03-21T00:04:21.454Z,0.00
2023-03-21T00:05:21.444Z,0.00
2023-03-21T00:06:21.460Z,0.00
2023-03-21T00:07:21.462Z,0.00
2023-03-21T00:08:21.510Z,0.00
2023-03-21T00:09:21.551Z,0.00
2023-03-21T00:10:33.052Z,0.00
2023-03-21T00:11:21.570Z,0.00
2023-03-21T00:12:21.591Z,0.00
2023-03-21T00:13:21.619Z,0.00
2023-03-21T00:14:21.646Z,0.00
2023-03-21T00:15:24.896Z,0.00
2023-03-21T00:16:25.816Z,0.00
2023-03-21T00:17:21.723Z,0.00
2023-03-21T00:18:21.752Z,0.00
2023-03-21T00:19:21.828Z,0.00
2023-03-21T00:20:21.799Z,0.00
2023-03-21T00:21:43.919Z,0.00
2023-03-21T00:22:21.878Z,0.00
2023-03-21T00:23:21.878Z,0.00
2023-03-21T00:24:21.903Z,0.00
2023-03-21T00:25:21.932Z,0.00
2023-03-21T00:26:21.955Z,0.00
2023-03-21T00:27:39.807Z,0.00
2023-03-21T00:28:22.013Z,0.00
2023-03-21T00:29:22.038Z,0.00
2023-03-21T00:30:22.060Z,0.00
2023-03-21T00:31:22.110Z,0.00
2023-03-21T00:32:22.153Z,0.00
2023-03-21T00:33:23.031Z,0.00
2023-03-21T00:34:31.750Z,0.00
2023-03-21T00:35:53.416Z,0.00
2023-03-21T00:36:22.248Z,0.00
2023-03-21T00:37:22.242Z,0.00
2023-03-21T00:38:22.308Z,0.00
2023-03-21T00:39:22.292Z,0.00
2023-03-21T00:40:31.171Z,0.00
2023-03-21T00:41:39.170Z,0.00
2023-03-21T00:42:22.372Z,0.00
2023-03-21T00:43:22.400Z,0.00
2023-03-21T00:44:22.422Z,0.00
2023-03-21T00:45:22.465Z,0.00
2023-03-21T00:46:25.213Z,0.00
2023-03-21T00:47:24.678Z,0.00
2023-03-21T00:48:22.579Z,0.00
2023-03-21T00:49:22.557Z,0.00
2023-03-21T00:50:22.581Z,0.00
2023-03-21T00:51:22.610Z,0.00
2023-03-21T00:52:38.145Z,0.00
2023-03-21T00:53:22.662Z,0.00
2023-03-21T00:54:22.704Z,0.00
2023-03-21T00:55:22.714Z,0.00
2023-03-21T00:56:22.766Z,0.00
2023-03-21T00:57:37.548Z,0.00
2023-03-21T00:58:22.825Z,0.00
2023-03-21T00:59:22.815Z,0.00
2023-03-21T01:00:22.838Z,0.00
2023-03-21T01:01:22.868Z,0.00
2023-03-21T01:02:23.311Z,0.00
2023-03-21T01:03:25.316Z,0.00
2023-03-21T01:04:22.944Z,0.00
2023-03-21T01:05:22.971Z,0.00
2023-03-21T01:06:22.998Z,0.00
2023-03-21T01:07:23.024Z,0.00
2023-03-21T01:08:29.300Z,0.00
2023-03-21T01:09:23.082Z,0.00
2023-03-21T01:10:23.118Z,0.00
2023-03-21T01:11:23.129Z,0.00
2023-03-21T01:12:23.151Z,0.00
2023-03-21T01:13:23.182Z,0.00
2023-03-21T01:14:23.890Z,0.00
2023-03-21T01:15:23.231Z,0.00
2023-03-21T01:16:23.282Z,0.00
2023-03-21T01:17:23.287Z,0.00
2023-03-21T01:18:23.308Z,0.00
2023-03-21T01:19:29.211Z,0.00
2023-03-21T01:20:23.361Z,0.00
2023-03-21T01:21:23.399Z,0.00
2023-03-21T01:22:23.415Z,0.00
2023-03-21T01:23:23.440Z,0.00
2023-03-21T01:24:23.471Z,0.00
2023-03-21T01:25:23.494Z,0.00
2023-03-21T01:26:23.541Z,0.00
2023-03-21T01:27:23.544Z,0.00
2023-03-21T01:28:23.576Z,0.00
2023-03-21T01:29:23.626Z,0.00
2023-03-21T01:30:24.765Z,0.00
2023-03-21T01:31:23.706Z,0.00
2023-03-21T01:32:23.674Z,0.00
2023-03-21T01:33:23.704Z,0.00
2023-03-21T01:34:23.726Z,0.00
2023-03-21T01:35:23.755Z,0.00
2023-03-21T01:36:24.914Z,0.00
2023-03-21T01:37:23.805Z,0.00
2023-03-21T01:38:23.833Z,0.00
2023-03-21T01:39:23.859Z,0.00
2023-03-21T01:40:23.883Z,0.00
2023-03-21T01:41:26.285Z,0.00
2023-03-21T01:42:23.955Z,0.00
2023-03-21T01:43:23.961Z,0.00
2023-03-21T01:44:23.988Z,0.00
2023-03-21T01:45:24.013Z,0.00
2023-03-21T01:46:24.038Z,0.00
2023-03-21T01:47:24.066Z,0.00
2023-03-21T01:48:24.089Z,0.00
2023-03-21T01:49:24.117Z,0.00
2023-03-21T01:50:24.144Z,0.00
2023-03-21T01:51:24.171Z,0.00
2023-03-21T01:52:35.788Z,0.00
2023-03-21T01:53:24.225Z,0.00
2023-03-21T01:54:24.248Z,0.00
2023-03-21T01:55:24.273Z,0.00
2023-03-21T01:56:24.302Z,0.00
2023-03-21T01:57:29.972Z,0.00
2023-03-21T01:58:24.381Z,0.00
2023-03-21T01:59:24.380Z,0.00
2023-03-21T02:00:24.407Z,0.00
2023-03-21T02:01:24.464Z,0.00
2023-03-21T02:02:24.487Z,0.00
2023-03-21T02:03:35.438Z,0.00
2023-03-21T02:04:24.564Z,0.00
2023-03-21T02:05:24.536Z,0.00
2023-03-21T02:06:24.577Z,0.00
2023-03-21T02:07:24.601Z,0.00
2023-03-21T02:08:36.848Z,0.00
2023-03-21T02:09:24.638Z,0.00
2023-03-21T02:10:24.664Z,0.00
2023-03-21T02:11:24.690Z,0.00
2023-03-21T02:12:24.719Z,0.00
2023-03-21T02:13:24.740Z,0.00
2023-03-21T02:14:29.192Z,0.00
2023-03-21T02:15:24.801Z,0.00
2023-03-21T02:16:24.874Z,0.00
2023-03-21T02:17:24.849Z,0.00
2023-03-21T02:18:24.874Z,0.00
2023-03-21T02:19:32.000Z,0.00
2023-03-21T02:20:24.926Z,0.00
2023-03-21T02:21:24.950Z,0.00
2023-03-21T02:22:24.982Z,0.00
2023-03-21T02:23:25.011Z,0.00
2023-03-21T02:24:25.031Z,0.00
2023-03-21T02:25:25.076Z,0.00
2023-03-21T02:26:28.506Z,0.00
2023-03-21T02:27:25.114Z,0.00
2023-03-21T02:28:25.133Z,0.00
2023-03-21T02:29:25.162Z,0.00
2023-03-21T02:30:30.405Z,0.00
2023-03-21T02:31:25.269Z,0.00
2023-03-21T02:32:36.568Z,0.00
2023-03-21T02:33:25.264Z,0.00
2023-03-21T02:34:25.291Z,0.00
2023-03-21T02:35:25.327Z,0.00
2023-03-21T02:36:25.402Z,0.00
2023-03-21T02:37:36.802Z,0.00
2023-03-21T02:38:25.402Z,0.00
2023-03-21T02:39:25.425Z,0.00
2023-03-21T02:40:25.446Z,0.00
2023-03-21T02:41:29.688Z,0.00
2023-03-21T02:42:25.506Z,0.00
2023-03-21T02:43:25.525Z,0.00
2023-03-21T02:44:25.550Z,0.00
2023-03-21T02:45:25.584Z,0.00
2023-03-21T02:46:33.294Z,0.00
2023-03-21T02:47:25.631Z,0.00
2023-03-21T02:48:33.154Z,0.00
2023-03-21T02:49:25.682Z,0.00
2023-03-21T02:50:25.708Z,0.00
2023-03-21T02:51:25.732Z,0.00
2023-03-21T02:52:37.952Z,0.00
2023-03-21T02:53:25.786Z,0.00
2023-03-21T02:54:38.320Z,0.00
2023-03-21T02:55:25.836Z,0.00
2023-03-21T02:56:25.866Z,0.00
2023-03-21T02:57:33.780Z,0.00
2023-03-21T02:58:25.916Z,0.00
2023-03-21T02:59:25.941Z,0.00
2023-03-21T03:00:25.967Z,0.00
2023-03-21T03:01:26.102Z,0.00
2023-03-21T03:02:26.046Z,0.00
2023-03-21T03:03:34.163Z,0.00
2023-03-21T03:04:26.108Z,0.00
2023-03-21T03:05:26.108Z,0.00
2023-03-21T03:06:26.125Z,0.00
2023-03-21T03:07:26.149Z,0.00
2023-03-21T03:08:37.519Z,0.00
2023-03-21T03:09:26.204Z,0.00
2023-03-21T03:10:26.229Z,0.00
2023-03-21T03:11:26.253Z,0.00
2023-03-21T03:12:26.300Z,0.00
2023-03-21T03:13:26.308Z,0.00
2023-03-21T03:14:46.467Z,0.00
2023-03-21T03:15:26.359Z,0.00
2023-03-21T03:16:26.385Z,0.00
2023-03-21T03:17:28.355Z,0.00
2023-03-21T03:18:26.606Z,0.00
2023-03-21T03:19:26.463Z,0.00
2023-03-21T03:20:26.488Z,0.00
2023-03-21T03:21:26.513Z,0.00
2023-03-21T03:22:26.545Z,0.00
2023-03-21T03:23:26.567Z,0.00
2023-03-21T03:24:26.593Z,0.00
2023-03-21T03:25:41.218Z,0.00
2023-03-21T03:26:26.645Z,0.00
2023-03-21T03:27:26.668Z,0.00
2023-03-21T03:28:26.695Z,0.00
2023-03-21T03:29:26.727Z,0.00
2023-03-21T03:30:32.348Z,0.00
2023-03-21T03:31:26.805Z,0.00
2023-03-21T03:32:26.799Z,0.00
2023-03-21T03:33:26.830Z,0.00
2023-03-21T03:34:26.871Z,0.00
2023-03-21T03:35:26.875Z,0.00
2023-03-21T03:36:32.152Z,0.00
2023-03-21T03:37:26.924Z,0.00
2023-03-21T03:38:26.959Z,0.00
2023-03-21T03:39:26.978Z,0.00
2023-03-21T03:40:27.004Z,0.00
2023-03-21T03:41:27.033Z,0.00
2023-03-21T03:42:28.685Z,0.00
2023-03-21T03:43:27.129Z,0.00
2023-03-21T03:44:27.107Z,0.00
2023-03-21T03:45:27.136Z,0.00
2023-03-21T03:46:27.241Z,0.00
2023-03-21T03:47:33.894Z,0.00
2023-03-21T03:48:27.266Z,0.00
2023-03-21T03:49:27.236Z,0.00
2023-03-21T03:50:27.283Z,0.00
2023-03-21T03:51:27.295Z,0.00
2023-03-21T03:52:27.323Z,0.00
2023-03-21T03:53:27.351Z,0.00
2023-03-21T03:54:27.366Z,0.00
2023-03-21T03:55:27.472Z,0.00
2023-03-21T03:56:27.430Z,0.00
2023-03-21T03:57:27.442Z,0.00
2023-03-21T03:58:39.745Z,0.00
2023-03-21T03:59:27.497Z,0.00
2023-03-21T04:00:27.520Z,0.00
2023-03-21T04:01:27.548Z,0.00
2023-03-21T04:02:27.609Z,0.00
2023-03-21T04:03:29.357Z,0.00
2023-03-21T04:04:27.728Z,0.00
2023-03-21T04:05:27.647Z,0.00
2023-03-21T04:06:27.702Z,0.00
2023-03-21T04:07:27.726Z,0.00
2023-03-21T04:08:27.728Z,0.00
2023-03-21T04:09:42.665Z,0.00
2023-03-21T04:10:27.782Z,0.00
2023-03-21T04:11:27.813Z,0.00
2023-03-21T04:12:27.847Z,0.00
2023-03-21T04:13:27.861Z,0.00
2023-03-21T04:14:35.513Z,0.00
2023-03-21T04:15:27.910Z,0.00
2023-03-21T04:16:27.976Z,0.00
2023-03-21T04:17:27.963Z,0.00
2023-03-21T04:18:27.990Z,0.00
2023-03-21T04:19:28.028Z,0.00
2023-03-21T04:20:36.476Z,0.00
2023-03-21T04:21:28.066Z,0.00
2023-03-21T04:22:28.115Z,0.00
2023-03-21T04:23:28.116Z,0.00
2023-03-21T04:24:28.148Z,0.00
2023-03-21T04:25:33.923Z,0.00
2023-03-21T04:26:28.198Z,0.00
2023-03-21T04:27:28.223Z,0.00
2023-03-21T04:28:28.248Z,0.00
2023-03-21T04:29:28.272Z,0.00
2023-03-21T04:30:28.307Z,0.00
2023-03-21T04:31:28.391Z,0.00
2023-03-21T04:32:28.363Z,0.00
2023-03-21T04:33:28.374Z,0.00
2023-03-21T04:34:28.446Z,0.00
2023-03-21T04:35:28.442Z,0.00
2023-03-21T04:36:28.453Z,0.00
2023-03-21T04:37:28.482Z,0.00
2023-03-21T04:38:28.538Z,0.00
2023-03-21T04:39:28.527Z,0.00
2023-03-21T04:40:28.555Z,0.00
2023-03-21T04:41:28.581Z,0.00
2023-03-21T04:42:28.611Z,0.00
2023-03-21T04:43:28.632Z,0.00
2023-03-21T04:44:28.659Z,0.00
2023-03-21T04:45:28.750Z,0.00
2023-03-21T04:46:28.711Z,0.00
2023-03-21T04:47:28.735Z,0.00
2023-03-21T04:48:28.781Z,0.00
2023-03-21T04:49:28.788Z,0.00
2023-03-21T04:50:28.813Z,0.00
2023-03-21T04:51:28.839Z,0.00
2023-03-21T04:52:28.866Z,0.00
2023-03-21T04:53:28.890Z,0.00
2023-03-21T04:54:28.937Z,0.00
2023-03-21T04:55:28.940Z,0.00
2023-03-21T04:56:28.971Z,0.00
2023-03-21T04:57:28.992Z,0.00
2023-03-21T04:58:29.020Z,0.00
2023-03-21T04:59:29.042Z,0.00
2023-03-21T05:00:29.075Z,0.00
2023-03-21T05:01:29.193Z,4.00
2023-03-21T05:02:29.124Z,4.00
2023-03-21T05:03:29.146Z,0.00
2023-03-21T05:04:29.171Z,0.00
2023-03-21T05:05:29.200Z,0.00
2023-03-21T05:06:29.223Z,4.00
2023-03-21T05:07:29.260Z,0.00
2023-03-21T05:08:29.276Z,4.00
2023-03-21T05:09:29.300Z,4.00
2023-03-21T05:10:29.350Z,4.00
2023-03-21T05:11:29.354Z,4.00
2023-03-21T05:12:29.384Z,4.00
2023-03-21T05:13:29.404Z,4.00
2023-03-21T05:14:29.433Z,8.00
2023-03-21T05:15:29.455Z,8.00
2023-03-21T05:16:29.561Z,12.00
2023-03-21T05:17:29.512Z,12.00
2023-03-21T05:18:29.534Z,12.00
2023-03-21T05:19:29.560Z,16.00
2023-03-21T05:20:29.590Z,16.00
2023-03-21T05:21:29.735Z,20.00
2023-03-21T05:22:29.653Z,24.00
2023-03-21T05:23:29.669Z,24.00
2023-03-21T05:24:29.693Z,28.00
2023-03-21T05:25:29.715Z,32.00
2023-03-21T05:26:29.762Z,36.00
2023-03-21T05:27:29.765Z,44.00
2023-03-21T05:28:29.793Z,44.00
2023-03-21T05:29:29.818Z,52.00
2023-03-21T05:30:29.852Z,60.00
2023-03-21T05:31:29.869Z,68.00
2023-03-21T05:32:29.895Z,76.00
2023-03-21T05:33:29.918Z,88.00
2023-03-21T05:34:29.949Z,96.00
2023-03-21T05:35:29.976Z,108.00
2023-03-21T05:36:29.999Z,124.00
2023-03-21T05:37:30.021Z,140.00
2023-03-21T05:38:30.050Z,160.00
2023-03-21T05:39:30.077Z,180.00
2023-03-21T05:40:30.103Z,204.00
2023-03-21T05:41:30.126Z,224.00
2023-03-21T05:42:30.174Z,240.00
2023-03-21T05:43:30.179Z,248.00
2023-03-21T05:44:30.205Z,248.00
2023-03-21T05:45:30.230Z,244.00
2023-03-21T05:46:30.377Z,228.00
2023-03-21T05:47:30.282Z,208.00
2023-03-21T05:48:30.308Z,212.00
2023-03-21T05:49:30.333Z,216.00
2023-03-21T05:50:30.357Z,232.00
2023-03-21T05:51:30.414Z,240.00
2023-03-21T05:52:30.416Z,252.00
2023-03-21T05:53:30.444Z,260.00
2023-03-21T05:54:30.468Z,272.00
2023-03-21T05:55:30.500Z,280.00
2023-03-21T05:56:30.518Z,280.00
2023-03-21T05:57:30.542Z,260.00
2023-03-21T05:58:30.586Z,248.00
2023-03-21T05:59:30.592Z,252.00
2023-03-21T06:00:30.803Z,288.00
2023-03-21T06:01:30.652Z,340.00
2023-03-21T06:02:30.755Z,392.00
2023-03-21T06:03:30.822Z,432.00
2023-03-21T06:04:30.729Z,456.00
2023-03-21T06:05:30.769Z,476.00
2023-03-21T06:06:30.783Z,496.00
2023-03-21T06:07:30.808Z,532.00
2023-03-21T06:08:30.832Z,580.00
2023-03-21T06:09:30.864Z,632.00
2023-03-21T06:10:30.879Z,692.00
2023-03-21T06:11:30.909Z,740.00
2023-03-21T06:12:30.941Z,752.00
2023-03-21T06:13:30.957Z,724.00
2023-03-21T06:14:31.004Z,704.00
2023-03-21T06:15:31.011Z,720.00
2023-03-21T06:16:31.030Z,760.00
2023-03-21T06:17:31.065Z,828.00
2023-03-21T06:18:31.102Z,872.00
2023-03-21T06:19:31.117Z,904.00
2023-03-21T06:20:31.155Z,892.00
2023-03-21T06:21:31.173Z,896.00
2023-03-21T06:22:31.200Z,912.00
2023-03-21T06:23:31.293Z,892.00
2023-03-21T06:24:31.240Z,904.00
2023-03-21T06:25:31.269Z,940.00
2023-03-21T06:26:31.305Z,972.00
2023-03-21T06:27:31.364Z,980.00
2023-03-21T06:28:31.360Z,996.00
2023-03-21T06:29:31.369Z,1008.00
2023-03-21T06:30:31.414Z,1000.00
2023-03-21T06:31:31.464Z,1004.00
2023-03-21T06:32:31.444Z,1012.00
2023-03-21T06:33:31.481Z,1024.00
2023-03-21T06:34:31.556Z,1052.00
2023-03-21T06:35:31.582Z,1080.00
2023-03-21T06:36:31.549Z,1112.00
2023-03-21T06:37:31.602Z,1140.00
2023-03-21T06:38:31.607Z,1160.00
2023-03-21T06:39:31.629Z,1148.00
2023-03-21T06:40:31.653Z,1128.00
2023-03-21T06:41:31.678Z,1100.00
2023-03-21T06:42:31.720Z,1080.00
2023-03-21T06:43:31.734Z,1056.00
2023-03-21T06:44:31.757Z,1044.00
2023-03-21T06:45:31.792Z,1016.00
2023-03-21T06:46:31.880Z,996.00
2023-03-21T06:47:31.839Z,972.00
2023-03-21T06:48:31.862Z,952.00
2023-03-21T06:49:31.890Z,948.00
2023-03-21T06:50:31.912Z,948.00
2023-03-21T06:51:31.967Z,956.00
2023-03-21T06:52:31.968Z,968.00
2023-03-21T06:53:31.994Z,988.00
2023-03-21T06:54:32.021Z,1028.00
2023-03-21T06:55:32.047Z,1076.00
2023-03-21T06:56:32.069Z,1132.00
2023-03-21T06:57:32.118Z,1240.00
2023-03-21T06:58:32.125Z,1372.00
2023-03-21T06:59:32.158Z,1496.00
2023-03-21T07:00:32.327Z,1600.00
2023-03-21T07:01:32.202Z,1684.00
2023-03-21T07:02:32.305Z,1740.00
2023-03-21T07:03:32.254Z,1756.00
2023-03-21T07:04:32.288Z,1748.00
2023-03-21T07:05:32.307Z,1720.00
2023-03-21T07:06:32.330Z,1708.00
2023-03-21T07:07:32.361Z,1700.00
2023-03-21T07:08:32.386Z,1688.00
2023-03-21T07:09:32.412Z,1716.00
2023-03-21T07:10:32.437Z,1756.00
2023-03-21T07:11:32.471Z,1812.00
2023-03-21T07:12:32.491Z,1884.00
2023-03-21T07:13:32.515Z,1960.00
2023-03-21T07:14:32.576Z,2040.00
2023-03-21T07:15:32.575Z,2112.00
2023-03-21T07:16:32.644Z,2168.00
2023-03-21T07:17:32.624Z,2220.00
2023-03-21T07:18:32.705Z,2240.00
2023-03-21T07:19:32.675Z,2228.00
2023-03-21T07:20:32.704Z,2228.00
2023-03-21T07:21:32.740Z,2236.00
2023-03-21T07:22:32.755Z,2248.00
2023-03-21T07:23:32.780Z,2236.00
2023-03-21T07:24:32.806Z,2232.00
2023-03-21T07:25:32.915Z,2216.00
2023-03-21T07:26:32.858Z,2172.00
2023-03-21T07:27:32.889Z,2104.00
2023-03-21T07:28:32.911Z,2000.00
2023-03-21T07:29:32.948Z,1908.00
2023-03-21T07:30:33.111Z,1856.00
2023-03-21T07:31:33.070Z,1844.00
2023-03-21T07:32:33.016Z,1816.00
2023-03-21T07:33:33.201Z,1776.00
2023-03-21T07:34:33.194Z,1760.00
2023-03-21T07:35:33.156Z,1788.00
2023-03-21T07:36:33.124Z,1832.00
2023-03-21T07:37:33.146Z,1864.00
2023-03-21T07:38:33.172Z,1868.00
2023-03-21T07:39:33.203Z,1796.00
2023-03-21T07:40:33.239Z,1752.00
2023-03-21T07:41:33.251Z,1728.00
2023-03-21T07:42:33.283Z,1712.00
2023-03-21T07:43:33.303Z,1864.00
2023-03-21T07:44:33.330Z,2160.00
2023-03-21T07:45:33.354Z,2480.00
2023-03-21T07:46:33.472Z,2736.00
2023-03-21T07:47:33.408Z,2804.00
2023-03-21T07:48:33.436Z,2736.00
2023-03-21T07:49:33.461Z,2636.00
2023-03-21T07:50:33.513Z,2536.00
2023-03-21T07:51:33.512Z,2512.00
2023-03-21T07:52:33.536Z,2512.00
2023-03-21T07:53:33.572Z,2552.00
2023-03-21T07:54:33.594Z,2600.00
2023-03-21T07:55:33.615Z,2588.00
2023-03-21T07:56:33.639Z,2564.00
2023-03-21T07:57:33.664Z,2540.00
2023-03-21T07:58:33.689Z,2456.00
2023-03-21T07:59:33.720Z,2244.00
2023-03-21T08:00:33.741Z,2112.00
2023-03-21T08:01:33.768Z,2180.00
2023-03-21T08:02:33.812Z,2300.00
2023-03-21T08:03:33.882Z,2344.00
2023-03-21T08:04:34.079Z,2332.00
2023-03-21T08:05:33.878Z,2312.00
2023-03-21T08:06:33.914Z,2312.00
2023-03-21T08:07:33.925Z,2324.00
2023-03-21T08:08:33.948Z,2328.00
2023-03-21T08:09:33.975Z,2368.00
2023-03-21T08:10:34.004Z,2480.00
2023-03-21T08:11:34.061Z,2636.00
2023-03-21T08:12:34.049Z,2772.00
2023-03-21T08:13:34.078Z,2888.00
2023-03-21T08:14:34.112Z,2984.00
2023-03-21T08:15:34.130Z,3048.00
2023-03-21T08:16:34.176Z,3052.00
2023-03-21T08:17:34.180Z,3036.00
2023-03-21T08:18:34.205Z,3020.00
2023-03-21T08:19:34.232Z,3012.00
2023-03-21T08:20:34.256Z,3024.00
2023-03-21T08:21:34.280Z,3028.00
2023-03-21T08:22:34.378Z,3008.00
2023-03-21T08:23:34.340Z,3036.00
2023-03-21T08:24:34.442Z,3076.00
2023-03-21T08:25:34.399Z,3108.00
2023-03-21T08:26:34.409Z,3120.00
2023-03-21T08:27:34.437Z,3180.00
2023-03-21T08:28:34.469Z,3316.00
2023-03-21T08:29:34.489Z,3484.00
2023-03-21T08:30:34.589Z,3616.00
2023-03-21T08:31:34.540Z,3632.00
2023-03-21T08:32:34.564Z,3580.00
2023-03-21T08:33:34.595Z,3524.00
2023-03-21T08:34:34.615Z,3512.00
2023-03-21T08:35:34.675Z,3496.00
2023-03-21T08:36:34.671Z,3428.00
2023-03-21T08:37:34.693Z,3392.00
2023-03-21T08:38:34.741Z,3464.00
2023-03-21T08:39:34.774Z,3560.00
2023-03-21T08:40:34.769Z,3668.00
2023-03-21T08:41:34.804Z,3772.00
2023-03-21T08:42:34.821Z,3896.00
2023-03-21T08:43:34.849Z,3972.00
2023-03-21T08:44:34.886Z,4032.00
2023-03-21T08:45:34.905Z,4068.00
2023-03-21T08:46:35.015Z,4120.00
2023-03-21T08:47:34.953Z,4252.00
2023-03-21T08:48:34.978Z,4352.00
2023-03-21T08:49:35.004Z,4348.00
2023-03-21T08:50:35.031Z,4256.00
2023-03-21T08:51:35.055Z,4180.00
2023-03-21T08:52:35.079Z,4172.00
2023-03-21T08:53:35.198Z,4196.00
2023-03-21T08:54:35.171Z,4260.00
2023-03-21T08:55:35.155Z,4320.00
2023-03-21T08:56:37.333Z,4336.00
2023-03-21T08:57:35.207Z,4260.00
2023-03-21T08:58:35.230Z,4156.00
2023-03-21T08:59:35.260Z,4068.00
2023-03-21T09:00:35.283Z,3996.00
2023-03-21T09:01:35.331Z,3944.00
2023-03-21T09:02:35.335Z,3908.00
2023-03-21T09:03:35.361Z,3912.00
2023-03-21T09:04:35.403Z,3928.00
2023-03-21T09:05:35.762Z,3956.00
2023-03-21T09:06:35.439Z,4040.00
2023-03-21T09:07:35.465Z,4116.00
2023-03-21T09:08:35.498Z,4188.00
2023-03-21T09:09:35.517Z,4248.00
2023-03-21T09:10:35.569Z,4188.00
2023-03-21T09:11:35.727Z,4124.00
2023-03-21T09:12:35.592Z,4088.00
2023-03-21T09:13:35.617Z,4108.00
2023-03-21T09:14:35.642Z,4152.00
2023-03-21T09:15:35.756Z,4084.00
2023-03-21T09:16:35.751Z,4028.00
2023-03-21T09:17:35.720Z,3980.00
2023-03-21T09:18:35.744Z,3812.00
2023-03-21T09:19:35.772Z,3664.00
2023-03-21T09:20:35.795Z,3664.00
2023-03-21T09:21:35.822Z,3768.00
2023-03-21T09:22:35.848Z,3824.00
2023-03-21T09:23:35.873Z,3884.00
2023-03-21T09:24:35.908Z,3896.00
2023-03-21T09:25:36.485Z,3812.00
2023-03-21T09:26:35.973Z,3660.00
2023-03-21T09:27:36.021Z,3500.00
2023-03-21T09:28:36.002Z,3376.00
2023-03-21T09:29:36.029Z,3304.00
2023-03-21T09:30:36.078Z,3428.00
2023-03-21T09:31:36.100Z,3708.00
2023-03-21T09:32:36.110Z,4028.00
2023-03-21T09:33:36.130Z,4384.00
2023-03-21T09:34:36.159Z,4788.00
2023-03-21T09:35:36.471Z,5240.00
2023-03-21T09:36:36.210Z,5652.00
2023-03-21T09:37:36.235Z,5952.00
2023-03-21T09:38:36.256Z,6140.00
2023-03-21T09:39:36.284Z,6344.00
2023-03-21T09:40:36.307Z,6396.00
2023-03-21T09:41:36.331Z,6304.00
2023-03-21T09:42:36.381Z,6092.00
2023-03-21T09:43:36.383Z,5856.00
2023-03-21T09:44:36.410Z,5764.00
2023-03-21T09:45:36.742Z,5772.00
2023-03-21T09:46:36.510Z,5740.00
2023-03-21T09:47:36.491Z,5556.00
2023-03-21T09:48:39.616Z,5264.00
2023-03-21T09:49:36.541Z,4884.00
2023-03-21T09:50:36.566Z,4448.00
2023-03-21T09:51:36.589Z,4008.00
2023-03-21T09:52:36.616Z,3644.00
2023-03-21T09:53:36.644Z,3452.00
2023-03-21T09:54:36.685Z,3408.00
2023-03-21T09:55:36.967Z,3436.00
2023-03-21T09:56:36.724Z,3536.00
2023-03-21T09:57:36.757Z,3680.00
2023-03-21T09:58:36.797Z,3832.00
2023-03-21T09:59:36.801Z,4004.00
2023-03-21T10:00:36.836Z,4104.00
2023-03-21T10:01:36.864Z,4196.00
2023-03-21T10:02:36.891Z,4380.00
2023-03-21T10:03:36.902Z,4536.00
2023-03-21T10:04:36.995Z,4656.00
2023-03-21T10:05:37.183Z,4816.00
2023-03-21T10:06:36.982Z,4928.00
2023-03-21T10:07:37.007Z,5052.00
2023-03-21T10:08:37.030Z,5192.00
2023-03-21T10:09:37.209Z,5364.00
2023-03-21T10:10:37.620Z,5492.00
2023-03-21T10:11:37.110Z,5600.00
2023-03-21T10:12:37.134Z,5524.00
2023-03-21T10:13:37.179Z,5320.00
2023-03-21T10:14:37.290Z,5016.00
2023-03-21T10:15:37.498Z,4736.00
2023-03-21T10:16:37.511Z,4556.00
2023-03-21T10:17:37.265Z,4408.00
2023-03-21T10:18:37.302Z,4268.00
2023-03-21T10:19:37.317Z,4152.00
2023-03-21T10:20:37.338Z,4068.00
2023-03-21T10:21:58.944Z,3988.00
2023-03-21T10:22:37.389Z,3920.00
2023-03-21T10:23:37.418Z,3776.00
2023-03-21T10:24:37.444Z,3552.00
2023-03-21T10:25:37.852Z,3364.00
2023-03-21T10:26:37.497Z,3272.00
2023-03-21T10:27:37.525Z,3240.00
2023-03-21T10:28:52.112Z,3312.00
2023-03-21T10:29:37.753Z,3400.00
2023-03-21T10:30:37.627Z,3484.00
2023-03-21T10:31:37.687Z,3572.00
2023-03-21T10:32:37.707Z,3592.00
2023-03-21T10:33:37.676Z,3656.00
2023-03-21T10:34:37.717Z,4060.00
2023-03-21T10:35:38.173Z,4644.00
2023-03-21T10:36:37.755Z,5136.00
2023-03-21T10:37:37.782Z,5504.00
2023-03-21T10:38:37.806Z,5836.00
2023-03-21T10:39:37.846Z,6132.00
2023-03-21T10:40:37.859Z,6276.00
2023-03-21T10:41:37.881Z,6084.00
2023-03-21T10:42:37.911Z,5676.00
2023-03-21T10:43:38.082Z,5440.00
2023-03-21T10:44:37.968Z,5480.00
2023-03-21T10:45:38.307Z,5632.00
2023-03-21T10:46:38.265Z,5712.00
2023-03-21T10:47:38.408Z,5716.00
2023-03-21T10:48:38.236Z,5876.00
2023-03-21T10:49:56.384Z,6288.00
2023-03-21T10:50:38.212Z,6740.00
2023-03-21T10:51:38.149Z,7068.00
2023-03-21T10:52:38.175Z,7408.00
2023-03-21T10:53:38.238Z,7780.00
2023-03-21T10:54:38.256Z,8104.00
2023-03-21T10:55:38.529Z,8452.00
2023-03-21T10:56:38.274Z,8804.00
2023-03-21T10:57:38.404Z,9188.00
2023-03-21T10:58:38.333Z,9576.00
2023-03-21T10:59:38.350Z,9900.00
2023-03-21T11:00:38.383Z,10044.00
2023-03-21T11:01:38.433Z,10048.00
2023-03-21T11:02:38.571Z,10012.00
2023-03-21T11:03:38.484Z,10192.00
2023-03-21T11:04:38.497Z,10492.00
2023-03-21T11:05:38.818Z,10732.00
2023-03-21T11:06:38.543Z,10612.00
2023-03-21T11:07:38.565Z,10180.00
2023-03-21T11:08:38.604Z,9636.00
2023-03-21T11:09:38.618Z,9112.00
2023-03-21T11:10:38.649Z,8744.00
2023-03-21T11:11:38.693Z,8468.00
2023-03-21T11:12:38.703Z,8308.00
2023-03-21T11:13:38.732Z,7980.00
2023-03-21T11:14:38.757Z,7556.00
2023-03-21T11:15:39.157Z,7112.00
2023-03-21T11:16:39.817Z,6560.00
2023-03-21T11:17:38.837Z,6048.00
2023-03-21T11:18:38.888Z,5512.00
2023-03-21T11:19:38.894Z,5044.00
2023-03-21T11:20:38.916Z,4628.00
2023-03-21T11:21:38.944Z,4312.00
2023-03-21T11:22:38.976Z,4164.00
2023-03-21T11:23:39.000Z,4116.00
2023-03-21T11:24:39.031Z,4160.00
2023-03-21T11:25:39.302Z,4248.00
2023-03-21T11:26:39.080Z,4372.00
2023-03-21T11:27:39.108Z,4544.00
2023-03-21T11:28:39.132Z,4772.00
2023-03-21T11:29:39.350Z,5052.00
2023-03-21T11:30:39.238Z,5344.00
2023-03-21T11:31:39.214Z,5560.00
2023-03-21T11:32:39.240Z,5676.00
2023-03-21T11:33:39.266Z,5644.00
2023-03-21T11:34:39.342Z,5524.00
2023-03-21T11:35:39.537Z,5292.00
2023-03-21T11:36:39.357Z,5028.00
2023-03-21T11:37:39.425Z,4820.00
2023-03-21T11:38:39.402Z,4660.00
2023-03-21T11:39:39.427Z,4528.00
2023-03-21T11:40:39.455Z,4448.00
2023-03-21T11:41:39.491Z,4464.00
2023-03-21T11:42:39.508Z,4576.00
2023-03-21T11:43:39.609Z,4724.00
2023-03-21T11:44:39.569Z,4776.00
2023-03-21T11:45:39.792Z,4692.00
2023-03-21T11:46:39.668Z,4524.00
2023-03-21T11:47:39.744Z,4352.00
2023-03-21T11:48:39.674Z,4188.00
2023-03-21T11:49:39.693Z,4088.00
2023-03-21T11:50:39.749Z,4024.00
2023-03-21T11:51:39.747Z,4012.00
2023-03-21T11:52:39.781Z,4044.00
2023-03-21T11:53:39.802Z,4068.00
2023-03-21T11:54:39.827Z,4104.00
2023-03-21T11:55:40.214Z,4152.00
2023-03-21T11:56:39.879Z,4200.00
2023-03-21T11:57:39.903Z,4228.00
2023-03-21T11:58:39.962Z,4280.00
2023-03-21T11:59:39.956Z,4356.00
2023-03-21T12:00:39.991Z,4420.00
2023-03-21T12:01:40.030Z,4392.00
2023-03-21T12:02:40.093Z,4308.00
2023-03-21T12:03:47.805Z,4280.00
2023-03-21T12:04:40.279Z,4276.00
2023-03-21T12:05:40.406Z,4268.00
2023-03-21T12:06:40.157Z,4332.00
2023-03-21T12:07:40.219Z,4484.00
2023-03-21T12:08:40.197Z,4668.00
2023-03-21T12:09:40.220Z,4788.00
2023-03-21T12:10:40.246Z,4868.00
2023-03-21T12:11:40.276Z,4908.00
2023-03-21T12:12:40.315Z,4964.00
2023-03-21T12:13:40.330Z,5048.00
2023-03-21T12:14:40.350Z,5176.00
2023-03-21T12:15:40.761Z,5372.00
2023-03-21T12:16:40.471Z,5656.00
2023-03-21T12:17:40.431Z,5892.00
2023-03-21T12:18:40.456Z,5828.00
2023-03-21T12:19:40.486Z,5588.00
2023-03-21T12:20:40.513Z,5444.00
2023-03-21T12:21:40.538Z,5356.00
2023-03-21T12:22:40.581Z,5312.00
2023-03-21T12:23:40.652Z,5224.00
2023-03-21T12:24:40.612Z,5120.00
2023-03-21T12:25:40.642Z,5028.00
2023-03-21T12:26:40.676Z,4972.00
2023-03-21T12:27:40.703Z,4952.00
2023-03-21T12:28:40.716Z,4960.00
2023-03-21T12:29:40.743Z,4984.00
2023-03-21T12:30:40.769Z,5012.00
2023-03-21T12:31:40.854Z,5068.00
2023-03-21T12:32:40.826Z,5188.00
2023-03-21T12:33:40.844Z,5404.00
2023-03-21T12:34:40.878Z,5612.00
2023-03-21T12:35:41.370Z,5640.00
2023-03-21T12:36:40.925Z,5496.00
2023-03-21T12:37:40.956Z,5216.00